sensor_id;sensor_type;location;lat;lon;timestamp;P1;durP1;ratioP1;P2;durP2;ratioP2
76749;SDS011;66447;35.844;14.468;2023-05-17T00:09:14;13.73;;;6.82;;
76749;SDS011;66447;35.844;14.468;2023-05-17T00:24:15;13.52;;;6.82;;
76749;SDS011;66447;35.844;14.468;2023-05-17T00:39:17;17.08;;;6.90;;
76749;SDS011;66447;35.844;14.468;2023-05-17T00:54:18;20.27;;;7.55;;
76749;SDS011;66447;35.844;14.468;2023-05-17T01:09:20;15.48;;;7.25;;
76749;SDS011;66447;35.844;14.468;2023-05-17T01:39:28;22.20;;;7.50;;
76749;SDS011;66447;35.844;14.468;2023-05-17T01:54:36;27.27;;;8.27;;
76749;SDS011;66447;35.844;14.468;2023-05-17T02:09:53;21.35;;;7.40;;
76749;SDS011;66447;35.844;14.468;2023-05-17T02:24:55;16.88;;;6.70;;
76749;SDS011;66447;35.844;14.468;2023-05-17T02:39:57;18.45;;;7.15;;
76749;SDS011;66447;35.844;14.468;2023-05-17T02:54:58;22.70;;;7.78;;
76749;SDS011;66447;35.844;14.468;2023-05-17T03:09:59;21.92;;;7.45;;
76749;SDS011;66447;35.844;14.468;2023-05-17T03:25:01;21.73;;;7.05;;
76749;SDS011;66447;35.844;14.468;2023-05-17T03:40:03;20.33;;;6.97;;
76749;SDS011;66447;35.844;14.468;2023-05-17T03:55:05;21.95;;;6.82;;
76749;SDS011;66447;35.844;14.468;2023-05-17T04:10:07;23.45;;;7.32;;
76749;SDS011;66447;35.844;14.468;2023-05-17T04:25:09;27.67;;;7.65;;
76749;SDS011;66447;35.844;14.468;2023-05-17T04:40:11;17.83;;;6.32;;
76749;SDS011;66447;35.844;14.468;2023-05-17T04:55:13;24.70;;;6.55;;
76749;SDS011;66447;35.844;14.468;2023-05-17T05:10:15;25.73;;;5.20;;
76749;SDS011;66447;35.844;14.468;2023-05-17T05:25:16;17.17;;;5.60;;
76749;SDS011;66447;35.844;14.468;2023-05-17T05:56:16;20.98;;;6.25;;
76749;SDS011;66447;35.844;14.468;2023-05-17T06:11:17;15.20;;;5.63;;
76749;SDS011;66447;35.844;14.468;2023-05-17T06:26:19;19.75;;;5.25;;
76749;SDS011;66447;35.844;14.468;2023-05-17T06:41:21;26.00;;;8.32;;
76749;SDS011;66447;35.844;14.468;2023-05-17T06:56:22;14.60;;;4.30;;
76749;SDS011;66447;35.844;14.468;2023-05-17T07:11:24;19.48;;;5.15;;
76749;SDS011;66447;35.844;14.468;2023-05-17T07:26:25;25.13;;;5.57;;
76749;SDS011;66447;35.844;14.468;2023-05-17T07:41:27;18.40;;;4.90;;
76749;SDS011;66447;35.844;14.468;2023-05-17T07:56:30;19.55;;;4.32;;
76749;SDS011;66447;35.844;14.468;2023-05-17T08:11:33;16.15;;;4.72;;
76749;SDS011;66447;35.844;14.468;2023-05-17T08:26:34;10.60;;;3.40;;
76749;SDS011;66447;35.844;14.468;2023-05-17T08:41:37;10.25;;;3.38;;
76749;SDS011;66447;35.844;14.468;2023-05-17T08:56:38;20.17;;;4.05;;
76749;SDS011;66447;35.844;14.468;2023-05-17T09:11:42;16.75;;;4.45;;
76749;SDS011;66447;35.844;14.468;2023-05-17T09:26:44;17.13;;;4.13;;
76749;SDS011;66447;35.844;14.468;2023-05-17T09:41:46;15.10;;;3.92;;
76749;SDS011;66447;35.844;14.468;2023-05-17T09:56:53;12.38;;;3.92;;
76749;SDS011;66447;35.844;14.468;2023-05-17T10:11:55;23.90;;;4.27;;
76749;SDS011;66447;35.844;14.468;2023-05-17T10:26:59;21.88;;;3.97;;
76749;SDS011;66447;35.844;14.468;2023-05-17T10:42:02;17.20;;;3.70;;
76749;SDS011;66447;35.844;14.468;2023-05-17T10:57:07;15.60;;;4.00;;
76749;SDS011;66447;35.844;14.468;2023-05-17T11:27:37;14.90;;;3.55;;
76749;SDS011;66447;35.844;14.468;2023-05-17T11:42:43;21.15;;;3.75;;
76749;SDS011;66447;35.844;14.468;2023-05-17T11:57:49;15.70;;;3.17;;
76749;SDS011;66447;35.844;14.468;2023-05-17T12:12:54;13.33;;;3.20;;
76749;SDS011;66447;35.844;14.468;2023-05-17T12:28:16;12.70;;;3.60;;
76749;SDS011;66447;35.844;14.468;2023-05-17T12:43:24;11.03;;;3.37;;
76749;SDS011;66447;35.844;14.468;2023-05-17T12:58:26;20.43;;;3.80;;
76749;SDS011;66447;35.844;14.468;2023-05-17T13:13:31;10.97;;;2.90;;
76749;SDS011;66447;35.844;14.468;2023-05-17T13:28:33;15.20;;;3.03;;
76749;SDS011;66447;35.844;14.468;2023-05-17T13:43:35;10.97;;;2.63;;
76749;SDS011;66447;35.844;14.468;2023-05-17T13:58:36;14.57;;;3.47;;
76749;SDS011;66447;35.844;14.468;2023-05-17T14:13:42;11.87;;;3.10;;
76749;SDS011;66447;35.844;14.468;2023-05-17T14:28:44;15.03;;;3.03;;
76749;SDS011;66447;35.844;14.468;2023-05-17T14:43:45;11.13;;;3.00;;
76749;SDS011;66447;35.844;14.468;2023-05-17T14:58:47;15.40;;;3.07;;
76749;SDS011;66447;35.844;14.468;2023-05-17T15:13:49;10.80;;;2.70;;
76749;SDS011;66447;35.844;14.468;2023-05-17T15:28:51;9.20;;;2.73;;
76749;SDS011;66447;35.844;14.468;2023-05-17T15:43:52;8.13;;;2.93;;
76749;SDS011;66447;35.844;14.468;2023-05-17T15:58:54;9.98;;;3.50;;
76749;SDS011;66447;35.844;14.468;2023-05-17T16:13:56;11.50;;;3.05;;
76749;SDS011;66447;35.844;14.468;2023-05-17T16:28:57;11.77;;;2.95;;
76749;SDS011;66447;35.844;14.468;2023-05-17T16:43:59;10.88;;;3.20;;
76749;SDS011;66447;35.844;14.468;2023-05-17T16:59:01;13.27;;;3.35;;
76749;SDS011;66447;35.844;14.468;2023-05-17T17:14:03;16.10;;;3.72;;
76749;SDS011;66447;35.844;14.468;2023-05-17T17:29:06;15.13;;;3.83;;
76749;SDS011;66447;35.844;14.468;2023-05-17T17:44:08;14.15;;;3.75;;
76749;SDS011;66447;35.844;14.468;2023-05-17T17:59:10;11.10;;;3.30;;
76749;SDS011;66447;35.844;14.468;2023-05-17T18:14:12;13.55;;;4.13;;
76749;SDS011;66447;35.844;14.468;2023-05-17T18:29:14;9.93;;;3.63;;
76749;SDS011;66447;35.844;14.468;2023-05-17T18:44:16;11.90;;;3.50;;
76749;SDS011;66447;35.844;14.468;2023-05-17T18:59:17;12.20;;;3.67;;
76749;SDS011;66447;35.844;14.468;2023-05-17T19:14:19;13.63;;;3.75;;
76749;SDS011;66447;35.844;14.468;2023-05-17T19:29:20;11.70;;;4.45;;
76749;SDS011;66447;35.844;14.468;2023-05-17T19:44:22;16.20;;;4.30;;
76749;SDS011;66447;35.844;14.468;2023-05-17T19:59:25;14.68;;;3.88;;
76749;SDS011;66447;35.844;14.468;2023-05-17T20:14:26;12.85;;;5.85;;
76749;SDS011;66447;35.844;14.468;2023-05-17T20:29:30;16.00;;;5.00;;
76749;SDS011;66447;35.844;14.468;2023-05-17T20:44:35;14.60;;;6.30;;
76749;SDS011;66447;35.844;14.468;2023-05-17T20:59:37;25.65;;;14.13;;
76749;SDS011;66447;35.844;14.468;2023-05-17T21:14:39;27.80;;;18.35;;
76749;SDS011;66447;35.844;14.468;2023-05-17T21:29:41;21.65;;;11.32;;
76749;SDS011;66447;35.844;14.468;2023-05-17T21:44:42;17.70;;;7.93;;
76749;SDS011;66447;35.844;14.468;2023-05-17T21:59:44;16.92;;;6.10;;
76749;SDS011;66447;35.844;14.468;2023-05-17T22:14:47;12.85;;;5.57;;
76749;SDS011;66447;35.844;14.468;2023-05-17T22:29:49;11.82;;;5.57;;
76749;SDS011;66447;35.844;14.468;2023-05-17T22:44:50;17.02;;;6.30;;
76749;SDS011;66447;35.844;14.468;2023-05-17T22:59:52;12.32;;;5.47;;
76749;SDS011;66447;35.844;14.468;2023-05-17T23:14:53;14.23;;;6.38;;
76749;SDS011;66447;35.844;14.468;2023-05-17T23:29:57;17.45;;;6.82;;
76749;SDS011;66447;35.844;14.468;2023-05-17T23:45:00;10.60;;;5.95;;
